sensor_id;sensor_type;location;lat;lon;timestamp;temperature;humidity
32446;DHT22;18899;50.748;7.102;2023-05-24T00:00:16;10.00;99.90
32446;DHT22;18899;50.748;7.102;2023-05-24T00:02:42;10.00;99.90
32446;DHT22;18899;50.748;7.102;2023-05-24T00:05:08;9.90;99.90
32446;DHT22;18899;50.748;7.102;2023-05-24T00:07:36;9.90;99.90
32446;DHT22;18899;50.748;7.102;2023-05-24T00:10:03;9.80;99.90
32446;DHT22;18899;50.748;7.102;2023-05-24T00:12:28;9.80;99.90
32446;DHT22;18899;50.748;7.102;2023-05-24T00:14:54;9.80;99.90
32446;DHT22;18899;50.748;7.102;2023-05-24T00:17:19;9.70;99.90
32446;DHT22;18899;50.748;7.102;2023-05-24T00:19:46;9.80;99.90
32446;DHT22;18899;50.748;7.102;2023-05-24T00:22:11;9.70;99.90
32446;DHT22;18899;50.748;7.102;2023-05-24T00:24:38;9.60;99.90
32446;DHT22;18899;50.748;7.102;2023-05-24T00:27:05;9.60;99.90
32446;DHT22;18899;50.748;7.102;2023-05-24T00:29:31;9.50;99.90
32446;DHT22;18899;50.748;7.102;2023-05-24T00:31:56;9.50;99.90
32446;DHT22;18899;50.748;7.102;2023-05-24T00:34:22;9.50;99.90
32446;DHT22;18899;50.748;7.102;2023-05-24T00:36:47;9.50;99.90
32446;DHT22;18899;50.748;7.102;2023-05-24T00:39:13;9.50;99.90
32446;DHT22;18899;50.748;7.102;2023-05-24T00:41:39;9.40;99.90
32446;DHT22;18899;50.748;7.102;2023-05-24T00:44:04;9.40;99.90
32446;DHT22;18899;50.748;7.102;2023-05-24T00:46:31;9.30;99.90
32446;DHT22;18899;50.748;7.102;2023-05-24T00:48:59;9.30;99.90
32446;DHT22;18899;50.748;7.102;2023-05-24T00:51:25;9.30;99.90
32446;DHT22;18899;50.748;7.102;2023-05-24T00:53:54;9.30;99.90
32446;DHT22;18899;50.748;7.102;2023-05-24T00:56:20;9.20;99.90
32446;DHT22;18899;50.748;7.102;2023-05-24T00:58:46;9.20;99.90
32446;DHT22;18899;50.748;7.102;2023-05-24T01:01:14;9.10;99.90
32446;DHT22;18899;50.748;7.102;2023-05-24T01:03:40;9.10;99.90
32446;DHT22;18899;50.748;7.102;2023-05-24T01:06:06;9.00;99.90
32446;DHT22;18899;50.748;7.102;2023-05-24T01:14:28;9.00;99.90
32446;DHT22;18899;50.748;7.102;2023-05-24T01:17:23;9.00;99.90
32446;DHT22;18899;50.748;7.102;2023-05-24T01:20:02;9.00;99.90
32446;DHT22;18899;50.748;7.102;2023-05-24T01:25:46;8.90;99.90
32446;DHT22;18899;50.748;7.102;2023-05-24T01:28:12;8.90;99.90
32446;DHT22;18899;50.748;7.102;2023-05-24T01:30:40;8.90;99.90
32446;DHT22;18899;50.748;7.102;2023-05-24T01:33:06;8.90;99.90
32446;DHT22;18899;50.748;7.102;2023-05-24T01:35:31;8.90;99.90
32446;DHT22;18899;50.748;7.102;2023-05-24T01:38:02;8.80;99.90
32446;DHT22;18899;50.748;7.102;2023-05-24T01:40:27;8.70;99.90
32446;DHT22;18899;50.748;7.102;2023-05-24T01:45:42;8.70;99.90
32446;DHT22;18899;50.748;7.102;2023-05-24T01:50:56;8.60;99.90
32446;DHT22;18899;50.748;7.102;2023-05-24T01:53:24;8.60;99.90
32446;DHT22;18899;50.748;7.102;2023-05-24T01:55:53;8.60;99.90
32446;DHT22;18899;50.748;7.102;2023-05-24T01:58:22;8.60;99.90
32446;DHT22;18899;50.748;7.102;2023-05-24T02:00:48;8.60;99.90
32446;DHT22;18899;50.748;7.102;2023-05-24T02:03:15;8.70;99.90
32446;DHT22;18899;50.748;7.102;2023-05-24T02:05:41;8.70;99.90
32446;DHT22;18899;50.748;7.102;2023-05-24T02:08:08;8.70;99.90
32446;DHT22;18899;50.748;7.102;2023-05-24T02:10:34;8.60;99.90
32446;DHT22;18899;50.748;7.102;2023-05-24T02:13:02;8.50;99.90
32446;DHT22;18899;50.748;7.102;2023-05-24T02:15:28;8.50;99.90
32446;DHT22;18899;50.748;7.102;2023-05-24T02:17:55;8.50;99.90
32446;DHT22;18899;50.748;7.102;2023-05-24T02:20:20;8.50;99.90
32446;DHT22;18899;50.748;7.102;2023-05-24T02:22:49;8.40;99.90
32446;DHT22;18899;50.748;7.102;2023-05-24T02:25:15;8.50;99.90
32446;DHT22;18899;50.748;7.102;2023-05-24T02:27:41;8.50;99.90
32446;DHT22;18899;50.748;7.102;2023-05-24T02:30:11;8.70;99.90
32446;DHT22;18899;50.748;7.102;2023-05-24T02:32:37;8.70;99.90
32446;DHT22;18899;50.748;7.102;2023-05-24T02:35:02;8.60;99.90
32446;DHT22;18899;50.748;7.102;2023-05-24T02:37:28;8.70;99.90
32446;DHT22;18899;50.748;7.102;2023-05-24T02:39:54;8.70;99.90
32446;DHT22;18899;50.748;7.102;2023-05-24T02:42:19;8.70;99.90
32446;DHT22;18899;50.748;7.102;2023-05-24T02:44:45;8.80;99.90
32446;DHT22;18899;50.748;7.102;2023-05-24T02:47:17;8.90;99.90
32446;DHT22;18899;50.748;7.102;2023-05-24T02:49:42;8.90;99.90
32446;DHT22;18899;50.748;7.102;2023-05-24T02:52:08;8.80;99.90
32446;DHT22;18899;50.748;7.102;2023-05-24T02:54:34;8.70;99.90
32446;DHT22;18899;50.748;7.102;2023-05-24T02:57:01;8.60;99.90
32446;DHT22;18899;50.748;7.102;2023-05-24T02:59:27;8.70;99.90
32446;DHT22;18899;50.748;7.102;2023-05-24T03:01:52;8.70;99.90
32446;DHT22;18899;50.748;7.102;2023-05-24T03:04:18;8.60;99.90
32446;DHT22;18899;50.748;7.102;2023-05-24T03:06:43;8.50;99.90
32446;DHT22;18899;50.748;7.102;2023-05-24T03:09:09;8.60;99.90
32446;DHT22;18899;50.748;7.102;2023-05-24T03:11:34;8.60;99.90
32446;DHT22;18899;50.748;7.102;2023-05-24T03:14:00;8.70;99.90
32446;DHT22;18899;50.748;7.102;2023-05-24T03:16:25;8.70;99.90
32446;DHT22;18899;50.748;7.102;2023-05-24T03:18:51;8.70;99.90
32446;DHT22;18899;50.748;7.102;2023-05-24T03:21:19;8.90;99.90
32446;DHT22;18899;50.748;7.102;2023-05-24T03:23:45;8.90;99.90
32446;DHT22;18899;50.748;7.102;2023-05-24T03:26:11;8.70;99.90
32446;DHT22;18899;50.748;7.102;2023-05-24T03:28:38;8.50;99.90
32446;DHT22;18899;50.748;7.102;2023-05-24T03:31:05;8.50;99.90
32446;DHT22;18899;50.748;7.102;2023-05-24T03:33:31;8.40;99.90
32446;DHT22;18899;50.748;7.102;2023-05-24T03:35:56;8.30;99.90
32446;DHT22;18899;50.748;7.102;2023-05-24T03:38:22;8.30;99.90
32446;DHT22;18899;50.748;7.102;2023-05-24T03:40:47;8.50;99.90
32446;DHT22;18899;50.748;7.102;2023-05-24T03:43:13;8.30;99.90
32446;DHT22;18899;50.748;7.102;2023-05-24T03:45:39;8.20;99.90
32446;DHT22;18899;50.748;7.102;2023-05-24T03:48:04;8.30;99.90
32446;DHT22;18899;50.748;7.102;2023-05-24T03:50:30;8.60;99.90
32446;DHT22;18899;50.748;7.102;2023-05-24T03:52:55;8.60;99.90
32446;DHT22;18899;50.748;7.102;2023-05-24T03:55:21;8.50;99.90
32446;DHT22;18899;50.748;7.102;2023-05-24T03:57:46;8.40;99.90
32446;DHT22;18899;50.748;7.102;2023-05-24T04:00:12;8.30;99.90
32446;DHT22;18899;50.748;7.102;2023-05-24T04:02:38;8.60;99.90
32446;DHT22;18899;50.748;7.102;2023-05-24T04:05:05;8.60;99.90
32446;DHT22;18899;50.748;7.102;2023-05-24T04:07:35;8.80;99.90
32446;DHT22;18899;50.748;7.102;2023-05-24T04:10:04;9.00;99.90
32446;DHT22;18899;50.748;7.102;2023-05-24T04:12:30;9.10;99.90
32446;DHT22;18899;50.748;7.102;2023-05-24T04:14:57;9.10;99.90
32446;DHT22;18899;50.748;7.102;2023-05-24T04:17:22;9.00;99.90
32446;DHT22;18899;50.748;7.102;2023-05-24T04:19:49;8.90;99.90
32446;DHT22;18899;50.748;7.102;2023-05-24T04:22:16;9.00;99.90
32446;DHT22;18899;50.748;7.102;2023-05-24T04:24:43;9.20;99.90
32446;DHT22;18899;50.748;7.102;2023-05-24T04:27:08;9.60;99.90
32446;DHT22;18899;50.748;7.102;2023-05-24T04:29:34;10.10;99.90
32446;DHT22;18899;50.748;7.102;2023-05-24T04:32:00;10.40;99.90
32446;DHT22;18899;50.748;7.102;2023-05-24T04:34:27;10.70;99.90
32446;DHT22;18899;50.748;7.102;2023-05-24T04:36:54;10.80;99.90
32446;DHT22;18899;50.748;7.102;2023-05-24T04:39:20;10.70;99.90
32446;DHT22;18899;50.748;7.102;2023-05-24T04:41:46;10.70;99.90
32446;DHT22;18899;50.748;7.102;2023-05-24T04:44:15;10.60;99.90
32446;DHT22;18899;50.748;7.102;2023-05-24T04:46:41;10.40;99.90
32446;DHT22;18899;50.748;7.102;2023-05-24T04:49:06;10.20;99.90
32446;DHT22;18899;50.748;7.102;2023-05-24T04:51:33;10.10;99.90
32446;DHT22;18899;50.748;7.102;2023-05-24T04:53:58;10.00;99.90
32446;DHT22;18899;50.748;7.102;2023-05-24T04:56:25;9.90;99.90
32446;DHT22;18899;50.748;7.102;2023-05-24T04:58:51;9.90;99.90
32446;DHT22;18899;50.748;7.102;2023-05-24T05:01:16;9.90;99.90
32446;DHT22;18899;50.748;7.102;2023-05-24T05:03:42;10.00;99.90
32446;DHT22;18899;50.748;7.102;2023-05-24T05:06:10;10.10;99.90
32446;DHT22;18899;50.748;7.102;2023-05-24T05:08:35;10.20;99.90
32446;DHT22;18899;50.748;7.102;2023-05-24T05:11:01;10.20;99.90
32446;DHT22;18899;50.748;7.102;2023-05-24T05:13:27;10.50;99.90
32446;DHT22;18899;50.748;7.102;2023-05-24T05:15:53;10.70;99.90
32446;DHT22;18899;50.748;7.102;2023-05-24T05:18:18;11.30;99.90
32446;DHT22;18899;50.748;7.102;2023-05-24T05:20:44;11.90;99.90
32446;DHT22;18899;50.748;7.102;2023-05-24T05:23:10;12.60;99.90
32446;DHT22;18899;50.748;7.102;2023-05-24T05:25:35;12.70;99.90
32446;DHT22;18899;50.748;7.102;2023-05-24T05:28:01;12.20;99.90
32446;DHT22;18899;50.748;7.102;2023-05-24T05:30:27;12.20;99.90
32446;DHT22;18899;50.748;7.102;2023-05-24T05:32:52;12.60;99.90
32446;DHT22;18899;50.748;7.102;2023-05-24T05:35:18;12.70;99.90
32446;DHT22;18899;50.748;7.102;2023-05-24T05:37:43;12.40;99.90
32446;DHT22;18899;50.748;7.102;2023-05-24T05:40:09;12.30;99.90
32446;DHT22;18899;50.748;7.102;2023-05-24T05:42:35;12.00;99.90
32446;DHT22;18899;50.748;7.102;2023-05-24T05:45:02;11.80;99.90
32446;DHT22;18899;50.748;7.102;2023-05-24T05:47:27;11.90;99.90
32446;DHT22;18899;50.748;7.102;2023-05-24T05:49:53;11.70;99.90
32446;DHT22;18899;50.748;7.102;2023-05-24T05:52:18;11.70;99.90
32446;DHT22;18899;50.748;7.102;2023-05-24T05:54:44;11.90;99.90
32446;DHT22;18899;50.748;7.102;2023-05-24T05:57:09;11.70;99.90
32446;DHT22;18899;50.748;7.102;2023-05-24T05:59:35;11.80;99.90
32446;DHT22;18899;50.748;7.102;2023-05-24T06:02:03;11.90;99.90
32446;DHT22;18899;50.748;7.102;2023-05-24T06:04:29;11.90;99.90
32446;DHT22;18899;50.748;7.102;2023-05-24T06:06:55;12.40;99.90
32446;DHT22;18899;50.748;7.102;2023-05-24T06:09:21;12.90;99.90
32446;DHT22;18899;50.748;7.102;2023-05-24T06:11:47;13.40;99.90
32446;DHT22;18899;50.748;7.102;2023-05-24T06:14:13;14.30;99.90
32446;DHT22;18899;50.748;7.102;2023-05-24T06:16:46;15.20;99.90
32446;DHT22;18899;50.748;7.102;2023-05-24T06:19:12;15.50;99.90
32446;DHT22;18899;50.748;7.102;2023-05-24T06:21:38;15.90;99.90
32446;DHT22;18899;50.748;7.102;2023-05-24T06:24:05;16.90;99.60
32446;DHT22;18899;50.748;7.102;2023-05-24T06:26:35;16.80;97.20
32446;DHT22;18899;50.748;7.102;2023-05-24T06:29:01;16.80;96.00
32446;DHT22;18899;50.748;7.102;2023-05-24T06:31:27;17.10;94.40
32446;DHT22;18899;50.748;7.102;2023-05-24T06:33:52;17.00;93.60
32446;DHT22;18899;50.748;7.102;2023-05-24T06:36:18;18.00;91.90
32446;DHT22;18899;50.748;7.102;2023-05-24T06:38:43;19.00;85.10
32446;DHT22;18899;50.748;7.102;2023-05-24T06:41:09;19.00;83.20
32446;DHT22;18899;50.748;7.102;2023-05-24T06:43:34;19.60;80.20
32446;DHT22;18899;50.748;7.102;2023-05-24T06:46:00;20.10;75.40
32446;DHT22;18899;50.748;7.102;2023-05-24T06:48:26;19.60;74.50
32446;DHT22;18899;50.748;7.102;2023-05-24T06:50:51;19.20;77.30
32446;DHT22;18899;50.748;7.102;2023-05-24T06:53:17;19.40;77.60
32446;DHT22;18899;50.748;7.102;2023-05-24T06:55:42;19.50;76.20
32446;DHT22;18899;50.748;7.102;2023-05-24T06:58:08;18.70;78.30
32446;DHT22;18899;50.748;7.102;2023-05-24T07:00:41;18.50;79.20
32446;DHT22;18899;50.748;7.102;2023-05-24T07:03:08;18.60;82.50
32446;DHT22;18899;50.748;7.102;2023-05-24T07:05:34;18.30;82.70
32446;DHT22;18899;50.748;7.102;2023-05-24T07:07:59;17.30;86.20
32446;DHT22;18899;50.748;7.102;2023-05-24T07:10:25;17.10;92.00
32446;DHT22;18899;50.748;7.102;2023-05-24T07:12:51;17.50;91.10
32446;DHT22;18899;50.748;7.102;2023-05-24T07:15:16;17.50;90.10
32446;DHT22;18899;50.748;7.102;2023-05-24T07:17:42;17.50;86.80
32446;DHT22;18899;50.748;7.102;2023-05-24T07:20:08;17.40;87.70
32446;DHT22;18899;50.748;7.102;2023-05-24T07:22:35;17.60;87.90
32446;DHT22;18899;50.748;7.102;2023-05-24T07:25:00;17.50;89.50
32446;DHT22;18899;50.748;7.102;2023-05-24T07:27:27;17.20;87.30
32446;DHT22;18899;50.748;7.102;2023-05-24T07:29:52;16.60;89.80
32446;DHT22;18899;50.748;7.102;2023-05-24T07:32:18;16.30;93.60
32446;DHT22;18899;50.748;7.102;2023-05-24T07:34:44;17.40;90.30
32446;DHT22;18899;50.748;7.102;2023-05-24T07:37:09;19.00;83.20
32446;DHT22;18899;50.748;7.102;2023-05-24T07:39:35;20.10;75.60
32446;DHT22;18899;50.748;7.102;2023-05-24T07:42:01;20.30;70.90
32446;DHT22;18899;50.748;7.102;2023-05-24T07:44:26;19.40;72.60
32446;DHT22;18899;50.748;7.102;2023-05-24T07:46:52;18.80;75.00
32446;DHT22;18899;50.748;7.102;2023-05-24T07:49:18;18.80;78.80
32446;DHT22;18899;50.748;7.102;2023-05-24T07:51:44;19.50;75.80
32446;DHT22;18899;50.748;7.102;2023-05-24T07:54:10;20.50;68.40
32446;DHT22;18899;50.748;7.102;2023-05-24T07:56:35;21.00;65.90
32446;DHT22;18899;50.748;7.102;2023-05-24T07:59:02;21.60;62.00
32446;DHT22;18899;50.748;7.102;2023-05-24T08:01:31;22.30;60.20
32446;DHT22;18899;50.748;7.102;2023-05-24T08:03:58;23.00;55.90
32446;DHT22;18899;50.748;7.102;2023-05-24T08:06:24;23.60;55.80
32446;DHT22;18899;50.748;7.102;2023-05-24T08:08:50;24.20;53.70
32446;DHT22;18899;50.748;7.102;2023-05-24T08:11:16;24.60;55.10
32446;DHT22;18899;50.748;7.102;2023-05-24T08:13:43;23.80;53.10
32446;DHT22;18899;50.748;7.102;2023-05-24T08:16:09;24.50;52.30
32446;DHT22;18899;50.748;7.102;2023-05-24T08:18:35;24.10;51.80
32446;DHT22;18899;50.748;7.102;2023-05-24T08:21:01;22.90;52.60
32446;DHT22;18899;50.748;7.102;2023-05-24T08:23:26;22.20;55.70
32446;DHT22;18899;50.748;7.102;2023-05-24T08:25:55;22.80;55.90
32446;DHT22;18899;50.748;7.102;2023-05-24T08:28:21;23.10;53.10
32446;DHT22;18899;50.748;7.102;2023-05-24T08:30:46;23.30;51.80
32446;DHT22;18899;50.748;7.102;2023-05-24T08:33:12;24.00;50.80
32446;DHT22;18899;50.748;7.102;2023-05-24T08:35:38;22.90;53.60
32446;DHT22;18899;50.748;7.102;2023-05-24T08:38:03;21.50;55.80
32446;DHT22;18899;50.748;7.102;2023-05-24T08:40:29;20.70;57.20
32446;DHT22;18899;50.748;7.102;2023-05-24T08:42:54;21.20;60.10
32446;DHT22;18899;50.748;7.102;2023-05-24T08:45:25;21.60;54.90
32446;DHT22;18899;50.748;7.102;2023-05-24T08:47:54;21.50;56.20
32446;DHT22;18899;50.748;7.102;2023-05-24T08:50:21;20.10;58.70
32446;DHT22;18899;50.748;7.102;2023-05-24T08:52:47;18.80;63.60
32446;DHT22;18899;50.748;7.102;2023-05-24T08:55:14;18.40;65.90
32446;DHT22;18899;50.748;7.102;2023-05-24T08:57:40;17.90;66.50
32446;DHT22;18899;50.748;7.102;2023-05-24T09:00:07;17.10;69.70
32446;DHT22;18899;50.748;7.102;2023-05-24T09:02:36;16.40;75.60
32446;DHT22;18899;50.748;7.102;2023-05-24T09:05:03;15.90;76.90
32446;DHT22;18899;50.748;7.102;2023-05-24T09:07:30;15.60;77.90
32446;DHT22;18899;50.748;7.102;2023-05-24T09:10:02;15.80;78.20
32446;DHT22;18899;50.748;7.102;2023-05-24T09:12:30;15.60;77.40
32446;DHT22;18899;50.748;7.102;2023-05-24T09:15:01;15.40;79.50
32446;DHT22;18899;50.748;7.102;2023-05-24T09:17:30;15.40;79.30
32446;DHT22;18899;50.748;7.102;2023-05-24T09:19:57;15.40;82.80
32446;DHT22;18899;50.748;7.102;2023-05-24T09:22:27;15.70;85.70
32446;DHT22;18899;50.748;7.102;2023-05-24T09:24:59;15.20;81.20
32446;DHT22;18899;50.748;7.102;2023-05-24T09:27:26;14.70;80.90
32446;DHT22;18899;50.748;7.102;2023-05-24T09:29:52;14.40;85.70
32446;DHT22;18899;50.748;7.102;2023-05-24T09:32:20;14.60;86.10
32446;DHT22;18899;50.748;7.102;2023-05-24T09:34:50;14.90;85.00
32446;DHT22;18899;50.748;7.102;2023-05-24T09:37:18;15.00;86.90
32446;DHT22;18899;50.748;7.102;2023-05-24T09:39:46;14.90;88.40
32446;DHT22;18899;50.748;7.102;2023-05-24T09:44:49;15.40;87.60
32446;DHT22;18899;50.748;7.102;2023-05-24T09:47:21;15.90;87.60
32446;DHT22;18899;50.748;7.102;2023-05-24T09:49:52;15.80;85.90
32446;DHT22;18899;50.748;7.102;2023-05-24T09:52:17;16.70;83.00
32446;DHT22;18899;50.748;7.102;2023-05-24T09:54:44;18.50;77.50
32446;DHT22;18899;50.748;7.102;2023-05-24T09:57:10;19.40;74.40
32446;DHT22;18899;50.748;7.102;2023-05-24T09:59:39;19.50;68.40
32446;DHT22;18899;50.748;7.102;2023-05-24T10:02:08;19.90;67.50
32446;DHT22;18899;50.748;7.102;2023-05-24T10:04:35;19.90;63.40
32446;DHT22;18899;50.748;7.102;2023-05-24T10:07:01;20.20;66.90
32446;DHT22;18899;50.748;7.102;2023-05-24T10:09:31;21.30;64.20
32446;DHT22;18899;50.748;7.102;2023-05-24T10:12:04;22.30;60.10
32446;DHT22;18899;50.748;7.102;2023-05-24T10:14:37;22.40;58.50
32446;DHT22;18899;50.748;7.102;2023-05-24T10:17:03;21.40;61.20
32446;DHT22;18899;50.748;7.102;2023-05-24T10:19:33;20.80;61.20
32446;DHT22;18899;50.748;7.102;2023-05-24T10:21:59;19.50;66.90
32446;DHT22;18899;50.748;7.102;2023-05-24T10:24:39;18.70;67.60
32446;DHT22;18899;50.748;7.102;2023-05-24T10:27:11;18.60;68.20
32446;DHT22;18899;50.748;7.102;2023-05-24T10:30:10;18.50;68.50
32446;DHT22;18899;50.748;7.102;2023-05-24T10:32:35;18.10;68.10
32446;DHT22;18899;50.748;7.102;2023-05-24T10:35:03;17.40;70.90
32446;DHT22;18899;50.748;7.102;2023-05-24T10:37:30;17.20;73.80
32446;DHT22;18899;50.748;7.102;2023-05-24T10:39:57;17.20;74.80
32446;DHT22;18899;50.748;7.102;2023-05-24T10:42:23;17.40;75.80
32446;DHT22;18899;50.748;7.102;2023-05-24T10:44:49;17.60;79.40
32446;DHT22;18899;50.748;7.102;2023-05-24T10:47:14;17.90;74.50
32446;DHT22;18899;50.748;7.102;2023-05-24T10:49:50;17.50;70.80
32446;DHT22;18899;50.748;7.102;2023-05-24T10:52:17;16.70;72.70
32446;DHT22;18899;50.748;7.102;2023-05-24T10:55:07;16.20;75.90
32446;DHT22;18899;50.748;7.102;2023-05-24T10:57:38;15.90;78.40
32446;DHT22;18899;50.748;7.102;2023-05-24T11:02:48;16.20;76.20
32446;DHT22;18899;50.748;7.102;2023-05-24T11:05:14;16.50;79.00
32446;DHT22;18899;50.748;7.102;2023-05-24T11:07:41;16.60;78.60
32446;DHT22;18899;50.748;7.102;2023-05-24T11:10:14;16.80;77.20
32446;DHT22;18899;50.748;7.102;2023-05-24T11:12:41;17.40;76.40
32446;DHT22;18899;50.748;7.102;2023-05-24T11:15:10;17.60;74.90
32446;DHT22;18899;50.748;7.102;2023-05-24T11:18:12;17.70;73.20
32446;DHT22;18899;50.748;7.102;2023-05-24T11:20:40;17.70;76.30
32446;DHT22;18899;50.748;7.102;2023-05-24T11:23:07;17.60;76.10
32446;DHT22;18899;50.748;7.102;2023-05-24T11:25:34;17.20;73.20
32446;DHT22;18899;50.748;7.102;2023-05-24T11:28:01;17.10;77.10
32446;DHT22;18899;50.748;7.102;2023-05-24T11:30:27;17.10;77.80
32446;DHT22;18899;50.748;7.102;2023-05-24T11:32:53;17.20;75.00
32446;DHT22;18899;50.748;7.102;2023-05-24T11:35:19;17.40;75.10
32446;DHT22;18899;50.748;7.102;2023-05-24T11:37:46;17.50;79.10
32446;DHT22;18899;50.748;7.102;2023-05-24T11:40:12;17.50;75.00
32446;DHT22;18899;50.748;7.102;2023-05-24T11:42:39;17.30;76.40
32446;DHT22;18899;50.748;7.102;2023-05-24T11:45:07;17.40;80.00
32446;DHT22;18899;50.748;7.102;2023-05-24T11:47:36;17.70;84.60
32446;DHT22;18899;50.748;7.102;2023-05-24T11:50:02;17.70;78.10
32446;DHT22;18899;50.748;7.102;2023-05-24T11:52:28;17.80;74.80
32446;DHT22;18899;50.748;7.102;2023-05-24T11:54:54;17.50;75.50
32446;DHT22;18899;50.748;7.102;2023-05-24T11:57:28;17.30;76.10
32446;DHT22;18899;50.748;7.102;2023-05-24T11:59:54;16.50;81.30
32446;DHT22;18899;50.748;7.102;2023-05-24T12:02:22;15.80;85.10
32446;DHT22;18899;50.748;7.102;2023-05-24T12:04:48;15.40;86.60
32446;DHT22;18899;50.748;7.102;2023-05-24T12:07:14;15.10;88.20
32446;DHT22;18899;50.748;7.102;2023-05-24T12:09:40;15.00;87.30
32446;DHT22;18899;50.748;7.102;2023-05-24T12:12:06;15.10;87.00
32446;DHT22;18899;50.748;7.102;2023-05-24T12:14:34;15.10;87.10
32446;DHT22;18899;50.748;7.102;2023-05-24T12:16:59;15.00;86.60
32446;DHT22;18899;50.748;7.102;2023-05-24T12:19:30;15.10;89.70
32446;DHT22;18899;50.748;7.102;2023-05-24T12:21:59;15.10;87.50
32446;DHT22;18899;50.748;7.102;2023-05-24T12:24:26;15.20;87.70
32446;DHT22;18899;50.748;7.102;2023-05-24T12:26:57;15.20;90.00
32446;DHT22;18899;50.748;7.102;2023-05-24T12:29:23;15.10;89.80
32446;DHT22;18899;50.748;7.102;2023-05-24T12:31:49;15.10;90.40
32446;DHT22;18899;50.748;7.102;2023-05-24T12:34:16;15.10;90.10
32446;DHT22;18899;50.748;7.102;2023-05-24T12:36:43;15.10;90.70
32446;DHT22;18899;50.748;7.102;2023-05-24T12:39:26;14.80;90.90
32446;DHT22;18899;50.748;7.102;2023-05-24T12:41:59;14.70;91.10
32446;DHT22;18899;50.748;7.102;2023-05-24T12:44:30;14.70;91.10
32446;DHT22;18899;50.748;7.102;2023-05-24T12:46:57;14.80;90.00
32446;DHT22;18899;50.748;7.102;2023-05-24T12:49:23;15.00;90.60
32446;DHT22;18899;50.748;7.102;2023-05-24T12:51:50;15.20;88.90
32446;DHT22;18899;50.748;7.102;2023-05-24T12:54:22;15.40;89.30
32446;DHT22;18899;50.748;7.102;2023-05-24T12:56:47;15.50;90.00
32446;DHT22;18899;50.748;7.102;2023-05-24T12:59:13;15.70;87.80
32446;DHT22;18899;50.748;7.102;2023-05-24T13:01:39;15.90;84.40
32446;DHT22;18899;50.748;7.102;2023-05-24T13:04:05;15.80;86.70
32446;DHT22;18899;50.748;7.102;2023-05-24T13:06:30;15.90;88.50
32446;DHT22;18899;50.748;7.102;2023-05-24T13:08:56;16.10;84.20
32446;DHT22;18899;50.748;7.102;2023-05-24T13:11:22;16.10;87.50
32446;DHT22;18899;50.748;7.102;2023-05-24T13:13:49;16.20;87.10
32446;DHT22;18899;50.748;7.102;2023-05-24T13:16:15;15.90;88.20
32446;DHT22;18899;50.748;7.102;2023-05-24T13:18:41;16.10;87.60
32446;DHT22;18899;50.748;7.102;2023-05-24T13:21:06;16.20;86.70
32446;DHT22;18899;50.748;7.102;2023-05-24T13:23:33;16.20;85.30
32446;DHT22;18899;50.748;7.102;2023-05-24T13:26:00;16.20;84.80
32446;DHT22;18899;50.748;7.102;2023-05-24T13:28:26;16.30;81.30
32446;DHT22;18899;50.748;7.102;2023-05-24T13:30:52;16.50;81.80
32446;DHT22;18899;50.748;7.102;2023-05-24T13:33:18;16.40;83.20
32446;DHT22;18899;50.748;7.102;2023-05-24T13:35:43;16.40;82.80
32446;DHT22;18899;50.748;7.102;2023-05-24T13:38:09;16.30;83.40
32446;DHT22;18899;50.748;7.102;2023-05-24T13:40:34;16.20;83.50
32446;DHT22;18899;50.748;7.102;2023-05-24T13:43:00;16.20;83.30
32446;DHT22;18899;50.748;7.102;2023-05-24T13:45:26;16.60;82.70
32446;DHT22;18899;50.748;7.102;2023-05-24T13:47:54;16.80;80.40
32446;DHT22;18899;50.748;7.102;2023-05-24T13:50:22;17.00;80.30
32446;DHT22;18899;50.748;7.102;2023-05-24T13:52:50;17.00;81.00
32446;DHT22;18899;50.748;7.102;2023-05-24T13:55:16;17.00;77.80
32446;DHT22;18899;50.748;7.102;2023-05-24T13:57:42;16.80;79.60
32446;DHT22;18899;50.748;7.102;2023-05-24T14:00:08;16.80;79.70
32446;DHT22;18899;50.748;7.102;2023-05-24T14:02:34;16.80;80.20
32446;DHT22;18899;50.748;7.102;2023-05-24T14:05:00;16.60;80.60
32446;DHT22;18899;50.748;7.102;2023-05-24T14:07:25;16.40;80.10
32446;DHT22;18899;50.748;7.102;2023-05-24T14:09:51;16.30;81.60
32446;DHT22;18899;50.748;7.102;2023-05-24T14:12:17;16.30;83.30
32446;DHT22;18899;50.748;7.102;2023-05-24T14:14:42;16.60;83.60
32446;DHT22;18899;50.748;7.102;2023-05-24T14:17:10;16.80;80.90
32446;DHT22;18899;50.748;7.102;2023-05-24T14:19:35;16.90;82.20
32446;DHT22;18899;50.748;7.102;2023-05-24T14:22:01;16.80;78.40
32446;DHT22;18899;50.748;7.102;2023-05-24T14:24:26;17.00;79.40
32446;DHT22;18899;50.748;7.102;2023-05-24T14:26:52;17.40;80.60
32446;DHT22;18899;50.748;7.102;2023-05-24T14:29:17;17.60;79.50
32446;DHT22;18899;50.748;7.102;2023-05-24T14:31:43;17.80;76.20
32446;DHT22;18899;50.748;7.102;2023-05-24T14:34:09;17.70;78.90
32446;DHT22;18899;50.748;7.102;2023-05-24T14:36:38;17.80;74.80
32446;DHT22;18899;50.748;7.102;2023-05-24T14:39:06;17.70;76.00
32446;DHT22;18899;50.748;7.102;2023-05-24T14:41:32;17.80;75.80
32446;DHT22;18899;50.748;7.102;2023-05-24T14:43:59;17.60;76.00
32446;DHT22;18899;50.748;7.102;2023-05-24T14:46:24;17.70;79.40
32446;DHT22;18899;50.748;7.102;2023-05-24T14:48:50;17.60;75.30
32446;DHT22;18899;50.748;7.102;2023-05-24T14:51:16;17.70;75.90
32446;DHT22;18899;50.748;7.102;2023-05-24T14:53:42;17.70;78.10
32446;DHT22;18899;50.748;7.102;2023-05-24T14:56:07;17.70;75.60
32446;DHT22;18899;50.748;7.102;2023-05-24T14:58:34;17.80;76.80
32446;DHT22;18899;50.748;7.102;2023-05-24T15:01:00;17.90;76.70
32446;DHT22;18899;50.748;7.102;2023-05-24T15:03:26;17.80;76.50
32446;DHT22;18899;50.748;7.102;2023-05-24T15:05:51;17.60;78.80
32446;DHT22;18899;50.748;7.102;2023-05-24T15:08:17;17.70;76.90
32446;DHT22;18899;50.748;7.102;2023-05-24T15:10:42;17.70;74.80
32446;DHT22;18899;50.748;7.102;2023-05-24T15:13:11;17.80;77.40
32446;DHT22;18899;50.748;7.102;2023-05-24T15:15:37;17.60;82.30
32446;DHT22;18899;50.748;7.102;2023-05-24T15:18:03;17.40;80.10
32446;DHT22;18899;50.748;7.102;2023-05-24T15:20:28;17.60;81.90
32446;DHT22;18899;50.748;7.102;2023-05-24T15:22:54;17.20;77.50
32446;DHT22;18899;50.748;7.102;2023-05-24T15:25:19;17.20;80.70
32446;DHT22;18899;50.748;7.102;2023-05-24T15:27:45;17.30;81.00
32446;DHT22;18899;50.748;7.102;2023-05-24T15:30:11;17.40;77.80
32446;DHT22;18899;50.748;7.102;2023-05-24T15:32:37;17.40;78.60
32446;DHT22;18899;50.748;7.102;2023-05-24T15:35:02;17.20;76.80
32446;DHT22;18899;50.748;7.102;2023-05-24T15:37:28;17.10;80.60
32446;DHT22;18899;50.748;7.102;2023-05-24T15:39:54;16.80;82.80
32446;DHT22;18899;50.748;7.102;2023-05-24T15:42:19;16.90;79.20
32446;DHT22;18899;50.748;7.102;2023-05-24T15:44:46;17.00;80.90
32446;DHT22;18899;50.748;7.102;2023-05-24T15:47:11;17.00;81.10
32446;DHT22;18899;50.748;7.102;2023-05-24T15:49:37;16.90;80.20
32446;DHT22;18899;50.748;7.102;2023-05-24T15:52:04;17.00;79.90